createdAt,value
2023-01-15T00:00:05.746Z,97.39
2023-01-15T00:01:05.742Z,97.23
2023-01-15T00:02:05.690Z,97.39
2023-01-15T00:03:05.714Z,97.19
2023-01-15T00:04:05.603Z,97.29
2023-01-15T00:05:05.577Z,97.49
2023-01-15T00:06:05.618Z,96.78
2023-01-15T00:07:05.515Z,97.08
2023-01-15T00:08:05.527Z,97.39
2023-01-15T00:09:05.487Z,97.19
2023-01-15T00:10:05.411Z,96.78
2023-01-15T00:11:05.368Z,96.98
2023-01-15T00:12:05.383Z,96.94
2023-01-15T00:13:05.374Z,97.08
2023-01-15T00:14:05.312Z,96.98
2023-01-15T00:15:05.256Z,96.42
2023-01-15T00:16:05.295Z,96.26
2023-01-15T00:17:05.204Z,96.37
2023-01-15T00:18:05.118Z,96.32
2023-01-15T00:19:05.156Z,96.37
2023-01-15T00:20:05.052Z,96.53
2023-01-15T00:21:05.029Z,96.37
2023-01-15T00:22:04.994Z,96.37
2023-01-15T00:23:04.969Z,96.57
2023-01-15T00:24:04.921Z,96.53
2023-01-15T00:25:04.971Z,96.16
2023-01-15T00:26:04.862Z,96.16
2023-01-15T00:27:04.810Z,96.12
2023-01-15T00:28:04.795Z,96.12
2023-01-15T00:29:04.775Z,96.22
2023-01-15T00:30:04.722Z,96.12
2023-01-15T00:31:04.773Z,96.01
2023-01-15T00:32:04.664Z,96.63
2023-01-15T00:33:04.619Z,96.53
2023-01-15T00:34:04.615Z,96.22
2023-01-15T00:35:04.539Z,96.42
2023-01-15T00:36:05.078Z,96.22
2023-01-15T00:37:04.540Z,96.12
2023-01-15T00:38:04.477Z,96.42
2023-01-15T00:39:04.436Z,96.32
2023-01-15T00:40:04.393Z,96.22
2023-01-15T00:41:04.336Z,96.12
2023-01-15T00:42:04.311Z,96.22
2023-01-15T00:43:04.367Z,96.32
2023-01-15T00:44:04.244Z,96.01
2023-01-15T00:45:04.237Z,96.53
2023-01-15T00:46:04.187Z,96.42
2023-01-15T00:47:04.153Z,96.42
2023-01-15T00:48:04.194Z,96.32
2023-01-15T00:49:04.070Z,96.22
2023-01-15T00:50:04.043Z,95.91
2023-01-15T00:51:04.044Z,95.70
2023-01-15T00:52:03.988Z,95.81
2023-01-15T00:53:03.993Z,95.81
2023-01-15T00:54:04.027Z,96.22
2023-01-15T00:55:03.875Z,96.17
2023-01-15T00:56:03.839Z,96.01
2023-01-15T00:57:03.796Z,96.07
2023-01-15T00:58:03.764Z,95.97
2023-01-15T00:59:03.834Z,95.66
2023-01-15T01:00:03.700Z,95.66
2023-01-15T01:01:03.783Z,95.25
2023-01-15T01:02:03.733Z,95.46
2023-01-15T01:03:03.620Z,95.76
2023-01-15T01:04:03.566Z,94.95
2023-01-15T01:05:03.586Z,94.90
2023-01-15T01:06:03.491Z,94.59
2023-01-15T01:07:03.464Z,94.84
2023-01-15T01:08:03.461Z,95.10
2023-01-15T01:09:03.399Z,94.90
2023-01-15T01:10:03.388Z,94.39
2023-01-15T01:11:03.413Z,95.31
2023-01-15T01:12:03.288Z,95.21
2023-01-15T01:13:03.244Z,95.05
2023-01-15T01:14:03.215Z,95.25
2023-01-15T01:15:03.202Z,94.39
2023-01-15T01:16:03.196Z,94.90
2023-01-15T01:17:03.204Z,94.29
2023-01-15T01:18:03.103Z,95.31
2023-01-15T01:19:03.054Z,94.39
2023-01-15T01:20:03.027Z,94.39
2023-01-15T01:21:03.067Z,94.59
2023-01-15T01:22:02.994Z,94.80
2023-01-15T01:23:02.974Z,94.49
2023-01-15T01:24:02.878Z,94.55
2023-01-15T01:25:02.841Z,94.96
2023-01-15T01:26:02.831Z,95.17
2023-01-15T01:27:02.801Z,93.73
2023-01-15T01:28:02.785Z,94.14
2023-01-15T01:29:02.833Z,93.93
2023-01-15T01:30:02.685Z,93.93
2023-01-15T01:31:02.666Z,93.93
2023-01-15T01:32:02.646Z,93.93
2023-01-15T01:33:02.586Z,93.84
2023-01-15T01:34:02.559Z,94.75
2023-01-15T01:35:02.568Z,94.14
2023-01-15T01:36:02.495Z,93.84
2023-01-15T01:37:02.450Z,94.96
2023-01-15T01:38:02.435Z,94.85
2023-01-15T01:39:02.469Z,94.34
2023-01-15T01:40:02.416Z,94.85
2023-01-15T01:41:02.304Z,94.30
2023-01-15T01:42:02.286Z,94.45
2023-01-15T01:43:02.242Z,94.96
2023-01-15T01:44:02.248Z,95.06
2023-01-15T01:45:02.171Z,96.29
2023-01-15T01:46:02.236Z,95.57
2023-01-15T01:47:02.137Z,96.39
2023-01-15T01:48:02.078Z,97.11
2023-01-15T01:49:02.073Z,97.00
2023-01-15T01:50:02.037Z,97.87
2023-01-15T01:51:01.989Z,97.52
2023-01-15T01:52:02.006Z,98.49
2023-01-15T01:53:01.907Z,98.79
2023-01-15T01:54:01.923Z,99.10
2023-01-15T01:55:01.933Z,98.99
2023-01-15T01:56:01.814Z,98.69
2023-01-15T01:57:01.777Z,99.41
2023-01-15T01:58:01.734Z,99.82
2023-01-15T01:59:01.717Z,99.82
2023-01-15T02:00:01.750Z,99.99
2023-01-15T02:01:01.718Z,99.99
2023-01-15T02:02:01.686Z,99.71
2023-01-15T02:03:01.587Z,99.99
2023-01-15T02:04:01.544Z,99.99
2023-01-15T02:05:01.571Z,99.99
2023-01-15T02:06:01.476Z,99.99
2023-01-15T02:07:01.436Z,99.99
2023-01-15T02:08:01.447Z,99.99
2023-01-15T02:09:01.376Z,99.99
2023-01-15T02:10:01.618Z,99.99
2023-01-15T02:11:01.312Z,99.99
2023-01-15T02:12:01.277Z,99.99
2023-01-15T02:13:01.225Z,99.99
2023-01-15T02:14:01.204Z,99.99
2023-01-15T02:15:01.180Z,99.99
2023-01-15T02:16:01.244Z,99.99
2023-01-15T02:17:01.107Z,99.99
2023-01-15T02:18:01.057Z,99.99
2023-01-15T02:19:01.022Z,99.99
2023-01-15T02:20:00.984Z,99.99
2023-01-15T02:21:00.955Z,99.99
2023-01-15T02:22:01.043Z,99.99
2023-01-15T02:23:00.884Z,99.99
2023-01-15T02:24:03.074Z,99.99
2023-01-15T02:25:00.817Z,99.99
2023-01-15T02:26:00.789Z,99.99
2023-01-15T02:27:00.756Z,99.99
2023-01-15T02:28:00.774Z,99.99
2023-01-15T02:29:00.715Z,99.99
2023-01-15T02:30:00.653Z,99.99
2023-01-15T02:31:00.628Z,99.99
2023-01-15T02:32:00.633Z,99.99
2023-01-15T02:33:00.543Z,99.99
2023-01-15T02:34:00.567Z,99.99
2023-01-15T02:35:00.842Z,99.99
2023-01-15T02:36:00.452Z,99.99
2023-01-15T02:37:00.472Z,99.99
2023-01-15T02:38:00.443Z,99.99
2023-01-15T02:39:00.342Z,99.99
2023-01-15T02:40:00.320Z,99.99
2023-01-15T02:41:00.282Z,99.99
2023-01-15T02:42:00.350Z,99.99
2023-01-15T02:43:00.226Z,99.99
2023-01-15T02:44:00.168Z,99.99
2023-01-15T02:45:00.183Z,99.99
2023-01-15T02:46:00.245Z,99.99
2023-01-15T02:47:00.237Z,99.99
2023-01-15T02:48:00.043Z,99.99
2023-01-15T02:49:00.008Z,99.99
2023-01-15T02:49:59.980Z,99.99
2023-01-15T02:50:59.933Z,99.99
2023-01-15T02:51:59.931Z,99.99
2023-01-15T02:52:59.924Z,99.99
2023-01-15T02:53:59.836Z,99.99
2023-01-15T02:55:07.729Z,99.99
2023-01-15T02:55:59.767Z,99.99
2023-01-15T02:56:59.737Z,99.99
2023-01-15T02:57:59.705Z,99.99
2023-01-15T02:58:59.738Z,99.99
2023-01-15T02:59:59.639Z,99.99
2023-01-15T03:00:59.698Z,99.99
2023-01-15T03:01:59.737Z,99.99
2023-01-15T03:02:59.558Z,99.99
2023-01-15T03:03:59.519Z,99.99
2023-01-15T03:04:59.523Z,99.99
2023-01-15T03:05:59.429Z,99.99
2023-01-15T03:06:59.408Z,99.99
2023-01-15T03:07:59.431Z,99.99
2023-01-15T03:08:59.330Z,99.99
2023-01-15T03:09:59.323Z,99.99
2023-01-15T03:10:59.256Z,99.99
2023-01-15T03:11:59.220Z,99.99
2023-01-15T03:12:59.246Z,99.99
2023-01-15T03:13:59.157Z,99.99
2023-01-15T03:14:59.129Z,99.99
2023-01-15T03:15:59.080Z,99.99
2023-01-15T03:16:59.071Z,99.99
2023-01-15T03:17:59.025Z,99.99
2023-01-15T03:18:59.057Z,99.99
2023-01-15T03:19:58.953Z,99.99
2023-01-15T03:20:59.105Z,99.99
2023-01-15T03:21:58.880Z,99.99
2023-01-15T03:22:58.854Z,99.99
2023-01-15T03:23:58.823Z,99.99
2023-01-15T03:24:59.296Z,99.99
2023-01-15T03:25:58.743Z,99.99
2023-01-15T03:26:58.819Z,99.99
2023-01-15T03:27:58.675Z,99.99
2023-01-15T03:28:58.640Z,99.99
2023-01-15T03:29:58.666Z,99.99
2023-01-15T03:30:58.617Z,99.99
2023-01-15T03:31:58.558Z,99.99
2023-01-15T03:32:58.520Z,99.99
2023-01-15T03:33:58.484Z,99.99
2023-01-15T03:34:58.503Z,99.99
2023-01-15T03:35:58.409Z,99.99
2023-01-15T03:36:58.376Z,99.99
2023-01-15T03:37:58.338Z,99.99
2023-01-15T03:38:58.316Z,99.99
2023-01-15T03:39:58.354Z,99.99
2023-01-15T03:40:58.242Z,99.99
2023-01-15T03:41:58.227Z,99.99
2023-01-15T03:42:58.183Z,99.99
2023-01-15T03:43:58.143Z,99.99
2023-01-15T03:44:58.113Z,99.99
2023-01-15T03:45:58.151Z,99.99
2023-01-15T03:46:58.043Z,99.99
2023-01-15T03:47:58.018Z,99.99
2023-01-15T03:48:57.971Z,99.99
2023-01-15T03:49:57.977Z,99.99
2023-01-15T03:50:57.960Z,99.99
2023-01-15T03:51:57.917Z,99.99
2023-01-15T03:52:57.843Z,99.99
2023-01-15T03:53:57.872Z,99.99
2023-01-15T03:54:57.769Z,99.99
2023-01-15T03:55:57.731Z,99.99
2023-01-15T03:56:57.699Z,99.99
2023-01-15T03:57:57.723Z,99.99
2023-01-15T03:58:57.637Z,99.99
2023-01-15T03:59:57.598Z,99.99
2023-01-15T04:00:57.691Z,99.99
2023-01-15T04:01:57.611Z,99.99
2023-01-15T04:02:57.493Z,99.99
2023-01-15T04:03:57.542Z,99.99
2023-01-15T04:04:57.427Z,99.99
2023-01-15T04:05:57.383Z,99.99
2023-01-15T04:06:57.416Z,99.99
2023-01-15T04:07:57.382Z,99.99
2023-01-15T04:08:57.288Z,99.99
2023-01-15T04:09:57.249Z,99.99
2023-01-15T04:10:57.210Z,99.99
2023-01-15T04:11:57.184Z,99.99
2023-01-15T04:12:57.194Z,99.99
2023-01-15T04:13:57.127Z,99.99
2023-01-15T04:14:57.079Z,99.99
2023-01-15T04:15:57.083Z,99.99
2023-01-15T04:16:57.017Z,99.99
2023-01-15T04:17:56.972Z,99.99
2023-01-15T04:18:56.989Z,99.99
2023-01-15T04:19:56.905Z,99.99
2023-01-15T04:20:56.874Z,99.99
2023-01-15T04:21:56.836Z,99.99
2023-01-15T04:22:56.807Z,99.99
2023-01-15T04:23:56.822Z,99.99
2023-01-15T04:24:56.729Z,99.99
2023-01-15T04:25:56.691Z,99.99
2023-01-15T04:26:56.658Z,99.99
2023-01-15T04:27:56.626Z,99.99
2023-01-15T04:28:56.589Z,99.99
2023-01-15T04:29:56.612Z,99.99
2023-01-15T04:30:56.572Z,99.99
2023-01-15T04:31:56.478Z,99.99
2023-01-15T04:32:56.443Z,99.99
2023-01-15T04:33:56.409Z,99.99
2023-01-15T04:34:56.371Z,99.99
2023-01-15T04:35:56.379Z,99.99
2023-01-15T04:36:56.301Z,99.99
2023-01-15T04:37:56.265Z,99.99
2023-01-15T04:38:56.229Z,99.99
2023-01-15T04:39:56.191Z,99.99
2023-01-15T04:40:56.165Z,99.99
2023-01-15T04:41:56.169Z,99.99
2023-01-15T04:42:56.088Z,99.99
2023-01-15T04:43:56.052Z,99.99
2023-01-15T04:44:56.017Z,99.99
2023-01-15T04:45:56.036Z,99.99
2023-01-15T04:46:55.997Z,99.99
2023-01-15T04:47:55.919Z,99.99
2023-01-15T04:48:55.879Z,99.99
2023-01-15T04:49:55.847Z,99.99
2023-01-15T04:50:55.808Z,99.99
2023-01-15T04:51:55.758Z,99.99
2023-01-15T04:52:55.788Z,99.99
2023-01-15T04:53:55.692Z,99.99
2023-01-15T04:54:55.665Z,99.99
2023-01-15T04:55:55.616Z,99.99
2023-01-15T04:56:55.583Z,99.99
2023-01-15T04:57:55.550Z,99.99
2023-01-15T04:58:55.582Z,99.99
2023-01-15T04:59:55.487Z,99.99
2023-01-15T05:00:55.485Z,99.99
2023-01-15T05:02:03.921Z,99.99
2023-01-15T05:02:55.365Z,99.99
2023-01-15T05:03:55.334Z,99.99
2023-01-15T05:04:55.373Z,99.99
2023-01-15T05:05:55.266Z,99.99
2023-01-15T05:06:55.228Z,99.99
2023-01-15T05:07:55.228Z,99.99
2023-01-15T05:08:55.154Z,99.99
2023-01-15T05:09:55.115Z,99.99
2023-01-15T05:10:55.139Z,99.99
2023-01-15T05:11:55.056Z,99.99
2023-01-15T05:12:55.010Z,99.99
2023-01-15T05:13:54.968Z,99.99
2023-01-15T05:14:54.935Z,99.99
2023-01-15T05:15:54.934Z,99.99
2023-01-15T05:16:54.916Z,99.99
2023-01-15T05:17:54.837Z,99.99
2023-01-15T05:18:54.797Z,99.99
2023-01-15T05:19:54.754Z,99.99
2023-01-15T05:20:54.727Z,99.99
2023-01-15T05:21:54.781Z,99.99
2023-01-15T05:22:54.643Z,99.99
2023-01-15T05:23:54.618Z,99.99
2023-01-15T05:24:54.575Z,99.99
2023-01-15T05:25:54.540Z,99.99
2023-01-15T05:26:54.509Z,99.99
2023-01-15T05:27:54.517Z,99.99
2023-01-15T05:28:54.446Z,99.99
2023-01-15T05:29:54.392Z,99.99
2023-01-15T05:30:54.390Z,99.99
2023-01-15T05:31:54.325Z,99.99
2023-01-15T05:32:54.300Z,99.99
2023-01-15T05:33:54.310Z,99.99
2023-01-15T05:34:54.220Z,99.99
2023-01-15T05:35:54.200Z,99.99
2023-01-15T05:36:54.156Z,99.99
2023-01-15T05:37:54.112Z,99.99
2023-01-15T05:38:54.144Z,99.99
2023-01-15T05:39:54.042Z,99.99
2023-01-15T05:40:54.000Z,99.99
2023-01-15T05:41:53.986Z,99.99
2023-01-15T05:42:53.928Z,99.99
2023-01-15T05:43:53.897Z,99.99
2023-01-15T05:44:53.923Z,99.99
2023-01-15T05:45:53.832Z,99.99
2023-01-15T05:46:53.871Z,99.99
2023-01-15T05:47:53.766Z,99.99
2023-01-15T05:48:53.713Z,99.99
2023-01-15T05:49:53.731Z,99.99
2023-01-15T05:50:53.642Z,99.99
2023-01-15T05:51:53.649Z,99.99
2023-01-15T05:52:53.578Z,99.99
2023-01-15T05:53:53.540Z,99.99
2023-01-15T05:54:53.563Z,99.99
2023-01-15T05:55:53.461Z,99.99
2023-01-15T05:56:53.425Z,99.99
2023-01-15T05:57:53.399Z,99.99
2023-01-15T05:58:53.377Z,99.99
2023-01-15T05:59:53.408Z,99.99
2023-01-15T06:00:53.284Z,99.99
2023-01-15T06:01:53.266Z,99.99
2023-01-15T06:02:53.303Z,99.99
2023-01-15T06:03:53.277Z,99.99
2023-01-15T06:04:53.147Z,99.99
2023-01-15T06:05:53.182Z,99.99
2023-01-15T06:06:53.078Z,99.99
2023-01-15T06:07:53.043Z,99.99
2023-01-15T06:08:53.027Z,99.99
2023-01-15T06:09:52.981Z,99.99
2023-01-15T06:10:52.938Z,99.99
2023-01-15T06:11:52.971Z,99.99
2023-01-15T06:12:52.856Z,99.99
2023-01-15T06:13:52.832Z,99.99
2023-01-15T06:14:52.791Z,99.99
2023-01-15T06:15:52.830Z,99.99
2023-01-15T06:16:52.737Z,99.99
2023-01-15T06:17:52.752Z,99.99
2023-01-15T06:18:52.655Z,99.99
2023-01-15T06:19:52.615Z,99.99
2023-01-15T06:20:52.571Z,99.99
2023-01-15T06:21:52.554Z,99.99
2023-01-15T06:22:52.514Z,99.99
2023-01-15T06:23:52.530Z,99.99
2023-01-15T06:24:52.427Z,99.99
2023-01-15T06:25:52.400Z,99.99
2023-01-15T06:26:52.381Z,99.99
2023-01-15T06:27:52.368Z,99.99
2023-01-15T06:28:52.307Z,99.99
2023-01-15T06:29:52.325Z,99.99
2023-01-15T06:30:52.228Z,99.99
2023-01-15T06:31:52.233Z,99.99
2023-01-15T06:32:52.166Z,99.99
2023-01-15T06:33:52.135Z,99.99
2023-01-15T06:34:52.090Z,99.99
2023-01-15T06:35:52.125Z,99.99
2023-01-15T06:36:52.022Z,99.99
2023-01-15T06:37:52.006Z,99.99
2023-01-15T06:38:51.938Z,99.99
2023-01-15T06:39:51.906Z,99.99
2023-01-15T06:40:51.868Z,99.99
2023-01-15T06:41:51.914Z,99.99
2023-01-15T06:42:51.815Z,99.99
2023-01-15T06:43:51.763Z,99.99
2023-01-15T06:44:51.735Z,99.99
2023-01-15T06:45:51.690Z,99.99
2023-01-15T06:46:51.680Z,99.99
2023-01-15T06:47:51.683Z,99.99
2023-01-15T06:48:51.582Z,99.99
2023-01-15T06:49:51.603Z,99.99
2023-01-15T06:50:51.519Z,99.99
2023-01-15T06:51:56.162Z,99.99
2023-01-15T06:52:51.444Z,99.99
2023-01-15T06:53:51.401Z,99.99
2023-01-15T06:54:51.431Z,99.99
2023-01-15T06:55:51.340Z,99.99
2023-01-15T06:56:51.301Z,99.99
2023-01-15T06:57:51.267Z,99.99
2023-01-15T06:58:51.227Z,99.99
2023-01-15T06:59:51.232Z,99.99
2023-01-15T07:00:51.251Z,99.99
2023-01-15T07:01:51.226Z,99.99
2023-01-15T07:02:51.093Z,99.99
2023-01-15T07:03:51.074Z,99.99
2023-01-15T07:04:51.050Z,99.99
2023-01-15T07:05:51.011Z,99.99
2023-01-15T07:06:51.006Z,99.99
2023-01-15T07:07:50.904Z,99.99
2023-01-15T07:08:50.884Z,99.99
2023-01-15T07:09:50.871Z,99.99
2023-01-15T07:10:50.798Z,99.99
2023-01-15T07:11:50.780Z,99.99
2023-01-15T07:12:50.783Z,99.99
2023-01-15T07:13:50.689Z,99.99
2023-01-15T07:14:50.661Z,99.99
2023-01-15T07:15:50.627Z,99.99
2023-01-15T07:16:50.601Z,99.99
2023-01-15T07:17:50.560Z,99.99
2023-01-15T07:18:50.580Z,99.99
2023-01-15T07:19:50.493Z,99.99
2023-01-15T07:20:50.456Z,99.99
2023-01-15T07:21:50.419Z,99.99
2023-01-15T07:22:50.404Z,99.99
2023-01-15T07:23:50.341Z,99.99
2023-01-15T07:24:50.365Z,99.99
2023-01-15T07:25:50.267Z,99.99
2023-01-15T07:26:50.246Z,99.99
2023-01-15T07:27:50.258Z,99.99
2023-01-15T07:28:50.172Z,99.99
2023-01-15T07:29:50.151Z,99.99
2023-01-15T07:30:50.118Z,99.99
2023-01-15T07:31:50.070Z,99.99
2023-01-15T07:32:50.089Z,99.99
2023-01-15T07:33:49.987Z,99.99
2023-01-15T07:34:49.949Z,99.99
2023-01-15T07:35:49.925Z,99.99
2023-01-15T07:36:49.881Z,99.99
2023-01-15T07:37:49.849Z,99.99
2023-01-15T07:38:49.858Z,99.99
2023-01-15T07:39:49.788Z,99.99
2023-01-15T07:40:49.764Z,99.99
2023-01-15T07:41:49.701Z,99.62
2023-01-15T07:42:49.662Z,99.52
2023-01-15T07:43:49.631Z,99.52
2023-01-15T07:44:49.666Z,99.82
2023-01-15T07:45:49.621Z,99.68
2023-01-15T07:46:49.529Z,99.41
2023-01-15T07:47:49.500Z,99.47
2023-01-15T07:48:49.461Z,99.52
2023-01-15T07:49:49.419Z,99.82
2023-01-15T07:50:49.434Z,99.21
2023-01-15T07:51:49.354Z,99.00
2023-01-15T07:52:50.866Z,98.79
2023-01-15T07:53:49.299Z,99.06
2023-01-15T07:54:49.256Z,99.26
2023-01-15T07:55:49.211Z,98.65
2023-01-15T07:56:49.233Z,98.58
2023-01-15T07:57:49.137Z,98.44
2023-01-15T07:58:49.129Z,98.54
2023-01-15T07:59:49.132Z,98.54
2023-01-15T08:00:49.041Z,98.07
2023-01-15T08:01:49.109Z,98.18
2023-01-15T08:02:49.017Z,98.02
2023-01-15T08:03:48.952Z,98.13
2023-01-15T08:04:48.892Z,98.75
2023-01-15T08:05:48.858Z,98.75
2023-01-15T08:06:48.812Z,97.92
2023-01-15T08:07:48.781Z,97.30
2023-01-15T08:08:48.795Z,97.61
2023-01-15T08:09:48.709Z,98.02
2023-01-15T08:10:48.678Z,98.02
2023-01-15T08:11:48.636Z,97.30
2023-01-15T08:12:48.644Z,97.72
2023-01-15T08:13:48.573Z,97.82
2023-01-15T08:14:48.611Z,96.99
2023-01-15T08:15:48.508Z,97.20
2023-01-15T08:16:48.469Z,97.82
2023-01-15T08:17:48.424Z,97.82
2023-01-15T08:18:48.413Z,97.20
2023-01-15T08:19:48.365Z,96.69
2023-01-15T08:20:48.375Z,96.99
2023-01-15T08:21:48.276Z,96.69
2023-01-15T08:22:48.272Z,96.37
2023-01-15T08:23:48.222Z,96.48
2023-01-15T08:24:48.182Z,97.26
2023-01-15T08:25:48.149Z,96.74
2023-01-15T08:26:48.181Z,96.99
2023-01-15T08:27:48.071Z,96.44
2023-01-15T08:28:48.037Z,96.27
2023-01-15T08:29:47.997Z,96.02
2023-01-15T08:30:47.964Z,97.16
2023-01-15T08:31:47.943Z,97.05
2023-01-15T08:32:47.964Z,96.12
2023-01-15T08:33:47.863Z,96.12
2023-01-15T08:34:47.822Z,96.74
2023-01-15T08:35:47.788Z,97.05
2023-01-15T08:36:47.754Z,96.64
2023-01-15T08:37:47.726Z,95.92
2023-01-15T08:38:47.741Z,96.12
2023-01-15T08:39:47.647Z,96.33
2023-01-15T08:40:47.613Z,96.23
2023-01-15T08:41:47.569Z,96.12
2023-01-15T08:42:47.541Z,95.71
2023-01-15T08:43:47.508Z,95.20
2023-01-15T08:44:47.519Z,95.46
2023-01-15T08:45:47.443Z,95.92
2023-01-15T08:46:47.404Z,95.50
2023-01-15T08:47:47.361Z,95.30
2023-01-15T08:48:47.329Z,96.80
2023-01-15T08:49:47.319Z,96.08
2023-01-15T08:50:47.314Z,95.87
2023-01-15T08:51:47.222Z,95.25
2023-01-15T08:52:47.195Z,95.56
2023-01-15T08:53:47.158Z,95.56
2023-01-15T08:54:47.121Z,94.64
2023-01-15T08:55:48.812Z,95.67
2023-01-15T08:56:47.111Z,94.95
2023-01-15T08:57:47.008Z,94.43
2023-01-15T08:58:46.974Z,94.32
2023-01-15T08:59:46.938Z,94.12
2023-01-15T09:00:46.941Z,93.40
2023-01-15T09:01:47.090Z,93.30
2023-01-15T09:02:48.747Z,93.60
2023-01-15T09:03:46.806Z,93.91
2023-01-15T09:04:46.806Z,93.91
2023-01-15T09:05:46.723Z,93.60
2023-01-15T09:06:46.706Z,93.56
2023-01-15T09:07:46.800Z,93.25
2023-01-15T09:08:46.630Z,93.66
2023-01-15T09:09:46.615Z,92.84
2023-01-15T09:10:46.549Z,93.66
2023-01-15T09:11:46.525Z,93.56
2023-01-15T09:12:46.485Z,92.84
2023-01-15T09:13:46.527Z,92.02
2023-01-15T09:14:58.442Z,92.12
2023-01-15T09:15:46.379Z,92.33
2023-01-15T09:16:46.368Z,92.53
2023-01-15T09:17:46.305Z,92.84
2023-01-15T09:18:46.264Z,92.53
2023-01-15T09:19:46.305Z,92.74
2023-01-15T09:20:46.204Z,92.74
2023-01-15T09:21:46.164Z,92.43
2023-01-15T09:22:46.133Z,92.63
2023-01-15T09:23:46.085Z,92.12
2023-01-15T09:24:46.060Z,92.63
2023-01-15T09:25:46.075Z,91.91
2023-01-15T09:26:45.979Z,92.94
2023-01-15T09:27:46.024Z,92.49
2023-01-15T09:28:46.039Z,92.02
2023-01-15T09:29:45.960Z,91.97
2023-01-15T09:30:46.032Z,92.08
2023-01-15T09:31:45.959Z,92.12
2023-01-15T09:32:45.814Z,92.02
2023-01-15T09:33:45.837Z,92.43
2023-01-15T09:34:45.764Z,92.53
2023-01-15T09:35:45.714Z,92.38
2023-01-15T09:36:45.741Z,92.33
2023-01-15T09:37:45.774Z,92.43
2023-01-15T09:38:45.676Z,92.84
2023-01-15T09:39:45.618Z,92.84
2023-01-15T09:40:45.502Z,92.22
2023-01-15T09:41:45.498Z,92.33
2023-01-15T09:42:45.642Z,92.69
2023-01-15T09:43:50.801Z,92.18
2023-01-15T09:44:45.379Z,92.29
2023-01-15T09:45:45.339Z,91.66
2023-01-15T09:46:45.297Z,92.29
2023-01-15T09:47:45.272Z,92.18
2023-01-15T09:48:45.225Z,91.87
2023-01-15T09:49:45.253Z,91.56
2023-01-15T09:50:45.140Z,91.05
2023-01-15T09:51:45.124Z,90.64
2023-01-15T09:52:45.104Z,90.84
2023-01-15T09:53:45.061Z,90.73
2023-01-15T09:54:45.310Z,90.43
2023-01-15T09:55:45.215Z,90.28
2023-01-15T09:56:44.944Z,89.56
2023-01-15T09:57:45.212Z,89.87
2023-01-15T09:58:45.091Z,89.56
2023-01-15T09:59:45.135Z,89.36
2023-01-15T10:00:44.875Z,89.36
2023-01-15T10:01:44.835Z,89.36
2023-01-15T10:02:44.947Z,88.84
2023-01-15T10:03:44.904Z,89.11
2023-01-15T10:04:44.915Z,88.74
2023-01-15T10:05:44.929Z,88.29
2023-01-15T10:06:44.726Z,87.77
2023-01-15T10:07:44.917Z,87.67
2023-01-15T10:08:44.766Z,87.57
2023-01-15T10:09:44.717Z,87.81
2023-01-15T10:10:44.759Z,87.57
2023-01-15T10:11:44.625Z,86.74
2023-01-15T10:12:44.679Z,86.47
2023-01-15T10:13:44.601Z,86.43
2023-01-15T10:14:44.545Z,86.33
2023-01-15T10:15:44.652Z,86.74
2023-01-15T10:16:44.559Z,86.54
2023-01-15T10:17:44.214Z,86.64
2023-01-15T10:18:44.170Z,86.64
2023-01-15T10:19:45.050Z,86.19
2023-01-15T10:20:44.333Z,85.98
2023-01-15T10:21:44.709Z,85.68
2023-01-15T10:22:44.258Z,86.29
2023-01-15T10:23:44.018Z,85.74
2023-01-15T10:24:44.161Z,85.12
2023-01-15T10:25:44.367Z,85.43
2023-01-15T10:26:44.113Z,85.12
2023-01-15T10:27:43.908Z,84.81
2023-01-15T10:28:44.069Z,84.98
2023-01-15T10:29:44.114Z,84.61
2023-01-15T10:30:43.799Z,84.98
2023-01-15T10:31:43.925Z,85.02
2023-01-15T10:32:53.552Z,85.43
2023-01-15T10:33:43.788Z,85.43
2023-01-15T10:34:43.912Z,84.81
2023-01-15T10:35:43.702Z,84.61
2023-01-15T10:36:43.568Z,85.12
2023-01-15T10:37:43.797Z,84.67
2023-01-15T10:38:43.703Z,84.56
2023-01-15T10:39:43.760Z,84.40
2023-01-15T10:40:43.548Z,84.98
2023-01-15T10:41:43.525Z,83.58
2023-01-15T10:42:43.654Z,83.58
2023-01-15T10:43:43.371Z,83.75
2023-01-15T10:44:43.270Z,83.95
2023-01-15T10:45:43.264Z,83.54
2023-01-15T10:46:43.204Z,83.75
2023-01-15T10:47:43.219Z,82.78
2023-01-15T10:48:43.142Z,84.32
2023-01-15T10:49:43.186Z,83.40
2023-01-15T10:50:43.125Z,83.29
2023-01-15T10:51:43.068Z,82.78
2023-01-15T10:52:44.746Z,82.89
2023-01-15T10:53:43.004Z,83.40
2023-01-15T10:54:42.915Z,82.57
2023-01-15T10:55:42.952Z,82.17
2023-01-15T10:56:42.864Z,82.17
2023-01-15T10:57:42.822Z,82.75
2023-01-15T10:58:45.307Z,81.86
2023-01-15T10:59:42.777Z,81.55
2023-01-15T11:00:42.726Z,81.55
2023-01-15T11:01:42.900Z,81.86
2023-01-15T11:02:42.742Z,81.76
2023-01-15T11:03:42.625Z,81.96
2023-01-15T11:04:44.835Z,82.06
2023-01-15T11:05:42.589Z,81.34
2023-01-15T11:06:42.540Z,82.10
2023-01-15T11:08:03.235Z,81.90
2023-01-15T11:09:07.906Z,82.00
2023-01-15T11:09:42.480Z,83.64
2023-01-15T11:10:42.399Z,81.79
2023-01-15T11:11:42.344Z,81.69
2023-01-15T11:12:42.312Z,82.51
2023-01-15T11:13:42.375Z,81.76
2023-01-15T11:14:42.232Z,81.90
2023-01-15T11:15:42.260Z,81.90
2023-01-15T11:16:44.129Z,81.79
2023-01-15T11:17:42.169Z,81.32
2023-01-15T11:18:42.111Z,83.03
2023-01-15T11:19:42.148Z,82.20
2023-01-15T11:20:42.039Z,81.90
2023-01-15T11:21:42.003Z,81.79
2023-01-15T11:22:44.205Z,81.38
2023-01-15T11:23:41.940Z,81.69
2023-01-15T11:24:41.888Z,81.21
2023-01-15T11:25:41.925Z,81.69
2023-01-15T11:26:41.836Z,81.69
2023-01-15T11:27:41.819Z,82.65
2023-01-15T11:28:41.764Z,83.06
2023-01-15T11:29:41.716Z,82.00
2023-01-15T11:30:41.701Z,81.69
2023-01-15T11:31:41.728Z,82.86
2023-01-15T11:32:41.616Z,82.62
2023-01-15T11:33:41.629Z,81.32
2023-01-15T11:34:41.569Z,81.07
2023-01-15T11:35:41.524Z,81.38
2023-01-15T11:36:41.485Z,82.34
2023-01-15T11:37:41.587Z,81.18
2023-01-15T11:38:41.442Z,81.59
2023-01-15T11:39:41.383Z,81.28
2023-01-15T11:40:41.354Z,81.38
2023-01-15T11:41:41.323Z,81.28
2023-01-15T11:42:41.279Z,81.52
2023-01-15T11:43:41.311Z,81.52
2023-01-15T11:44:41.213Z,81.90
2023-01-15T11:45:41.183Z,81.38
2023-01-15T11:46:41.211Z,80.97
2023-01-15T11:47:41.520Z,81.28
2023-01-15T11:48:41.086Z,80.97
2023-01-15T11:49:41.124Z,80.87
2023-01-15T11:50:41.016Z,81.28
2023-01-15T11:51:40.960Z,81.69
2023-01-15T11:52:40.942Z,81.69
2023-01-15T11:53:40.903Z,80.60
2023-01-15T11:54:40.869Z,81.07
2023-01-15T11:55:40.892Z,81.52
2023-01-15T11:56:40.788Z,79.98
2023-01-15T11:57:40.760Z,80.49
2023-01-15T11:58:40.725Z,81.52
2023-01-15T11:59:40.696Z,81.32
2023-01-15T12:00:40.671Z,81.21
2023-01-15T12:01:40.684Z,81.62
2023-01-15T12:02:40.600Z,82.04
2023-01-15T12:03:40.657Z,81.32
2023-01-15T12:04:40.631Z,81.18
2023-01-15T12:05:40.482Z,81.32
2023-01-15T12:06:40.447Z,81.42
2023-01-15T12:07:40.468Z,81.93
2023-01-15T12:08:40.391Z,81.52
2023-01-15T12:09:40.334Z,81.42
2023-01-15T12:10:40.309Z,81.28
2023-01-15T12:11:40.268Z,81.52
2023-01-15T12:12:40.243Z,80.87
2023-01-15T12:13:40.254Z,80.77
2023-01-15T12:14:40.169Z,80.46
2023-01-15T12:15:40.135Z,80.91
2023-01-15T12:16:40.109Z,80.77
2023-01-15T12:17:40.065Z,81.38
2023-01-15T12:18:40.033Z,81.14
2023-01-15T12:19:40.060Z,80.93
2023-01-15T12:20:40.748Z,81.38
2023-01-15T12:21:39.927Z,79.84
2023-01-15T12:22:39.897Z,80.93
2023-01-15T12:23:39.913Z,81.55
2023-01-15T12:24:39.882Z,81.14
2023-01-15T12:25:39.805Z,81.14
2023-01-15T12:26:39.748Z,80.42
2023-01-15T12:27:41.231Z,80.56
2023-01-15T12:28:39.680Z,79.84
2023-01-15T12:29:39.652Z,80.42
2023-01-15T12:30:39.924Z,80.52
2023-01-15T12:31:39.643Z,80.21
2023-01-15T12:32:39.711Z,80.11
2023-01-15T12:33:39.518Z,80.32
2023-01-15T12:34:40.239Z,80.73
2023-01-15T12:35:39.435Z,80.73
2023-01-15T12:36:40.421Z,80.01
2023-01-15T12:37:39.381Z,80.32
2023-01-15T12:38:41.232Z,80.73
2023-01-15T12:39:39.302Z,80.83
2023-01-15T12:40:39.354Z,80.63
2023-01-15T12:41:39.295Z,81.07
2023-01-15T12:42:39.251Z,80.83
2023-01-15T12:43:39.168Z,80.93
2023-01-15T12:44:39.147Z,81.28
2023-01-15T12:45:39.089Z,81.55
2023-01-15T12:46:39.114Z,81.24
2023-01-15T12:47:39.105Z,81.28
2023-01-15T12:48:38.992Z,81.59
2023-01-15T12:49:38.964Z,81.69
2023-01-15T12:50:39.039Z,81.21
2023-01-15T12:51:38.896Z,81.93